Time;durP1;ratioP1;P1;durP2;ratioP2;P2;SDS_P1;SDS_P2;PMS_P1;PMS_P2;Temp;Humidity;BMP_temperature;BMP_pressure;BME280_temperature;BME280_humidity;BME280_pressure;Samples;Min_cycle;Max_cycle;Signal;HPM_P1;HPM_P2
2024/02/04 00:00:59;;;;;;;9.77;8.18;;;;;;;;;;5074046;28;20049;-62
2024/02/04 00:03:26;;;;;;;10.05;8.15;;;;;;;;;;5074405;28;20479;-61
2024/02/04 00:05:53;;;;;;;9.73;7.95;;;;;;;;;;5073678;28;20049;-62
2024/02/04 00:08:21;;;;;;;10.68;7.60;;;;;;;;;;5074223;28;20056;-63
2024/02/04 00:10:48;;;;;;;8.30;6.88;;;;;;;;;;5073680;28;20056;-62
2024/02/04 00:13:15;;;;;;;7.45;6.75;;;;;;;;;;5073653;28;20048;-63
2024/02/04 00:15:42;;;;;;;8.45;7.25;;;;;;;;;;5072983;28;20065;-61
2024/02/04 00:18:09;;;;;;;10.27;7.00;;;;;;;;;;5073442;28;20372;-62
2024/02/04 00:20:36;;;;;;;7.88;6.75;;;;;;;;;;5073125;28;20052;-61
2024/02/04 00:23:03;;;;;;;7.47;6.50;;;;;;;;;;5072657;28;20056;-60
2024/02/04 00:25:31;;;;;;;7.25;6.50;;;;;;;;;;5073010;28;20063;-60
2024/02/04 00:27:58;;;;;;;6.95;6.22;;;;;;;;;;5072826;28;20056;-63
2024/02/04 00:30:26;;;;;;;7.43;6.38;;;;;;;;;;5073322;28;20475;-61
2024/02/04 00:32:53;;;;;;;8.32;6.65;;;;;;;;;;5073381;28;20063;-61
2024/02/04 00:35:20;;;;;;;9.23;7.47;;;;;;;;;;5072909;28;20048;-62
2024/02/04 00:37:47;;;;;;;7.93;7.13;;;;;;;;;;5073488;28;20048;-63
2024/02/04 00:40:14;;;;;;;9.57;7.47;;;;;;;;;;5073219;28;20114;-62
2024/02/04 00:42:42;;;;;;;7.63;6.80;;;;;;;;;;5073042;28;20059;-62
2024/02/04 00:45:09;;;;;;;9.38;6.88;;;;;;;;;;5073053;28;20392;-61
2024/02/04 00:47:36;;;;;;;8.07;7.28;;;;;;;;;;5073084;28;20056;-60
2024/02/04 00:50:03;;;;;;;7.20;6.50;;;;;;;;;;5072883;28;20057;-62
2024/02/04 00:52:30;;;;;;;7.97;6.32;;;;;;;;;;5072958;28;20059;-62
2024/02/04 00:54:56;;;;;;;7.55;6.68;;;;;;;;;;5072569;28;20063;-62
2024/02/04 00:57:23;;;;;;;8.52;6.78;;;;;;;;;;5072606;28;20048;-62
2024/02/04 00:59:51;;;;;;;7.82;6.10;;;;;;;;;;5072428;28;20048;-62
2024/02/04 01:02:18;;;;;;;6.43;5.63;;;;;;;;;;5072492;28;20407;-61
2024/02/04 01:04:45;;;;;;;8.23;7.05;;;;;;;;;;5072705;28;20411;-61
2024/02/04 01:07:12;;;;;;;5.95;5.35;;;;;;;;;;5072295;28;20071;-61
2024/02/04 01:09:38;;;;;;;6.57;5.63;;;;;;;;;;5072295;28;20048;-61
2024/02/04 01:12:05;;;;;;;5.50;5.00;;;;;;;;;;5072530;28;20407;-61
2024/02/04 01:14:32;;;;;;;7.32;5.55;;;;;;;;;;5072387;28;20063;-62
2024/02/04 01:17:00;;;;;;;7.53;5.85;;;;;;;;;;5072244;28;20056;-61
2024/02/04 01:19:27;;;;;;;7.18;5.72;;;;;;;;;;5072534;28;20061;-61
2024/02/04 01:21:54;;;;;;;5.60;5.10;;;;;;;;;;5072501;28;20060;-61
2024/02/04 01:24:21;;;;;;;6.93;5.30;;;;;;;;;;5072386;28;20053;-61
2024/02/04 01:26:47;;;;;;;4.95;4.45;;;;;;;;;;5072408;28;20056;-61
2024/02/04 01:29:14;;;;;;;4.60;4.07;;;;;;;;;;5072552;28;20052;-61
2024/02/04 01:31:41;;;;;;;6.15;5.00;;;;;;;;;;5072439;28;20071;-61
2024/02/04 01:34:09;;;;;;;5.10;4.60;;;;;;;;;;5072440;28;20053;-61
2024/02/04 01:36:36;;;;;;;5.35;4.07;;;;;;;;;;5076288;28;20065;-61
2024/02/04 01:39:03;;;;;;;5.43;4.05;;;;;;;;;;5076591;28;20410;-60
2024/02/04 01:41:30;;;;;;;4.63;3.45;;;;;;;;;;5076176;28;20059;-60
2024/02/04 01:43:56;;;;;;;4.78;4.25;;;;;;;;;;5076221;28;20071;-60
2024/02/04 01:46:23;;;;;;;4.60;4.10;;;;;;;;;;5076218;28;20593;-60
2024/02/04 01:48:50;;;;;;;3.10;2.80;;;;;;;;;;5076529;28;20048;-60
2024/02/04 01:51:20;;;;;;;2.92;2.53;;;;;;;;;;5076348;28;20053;-60
2024/02/04 01:53:47;;;;;;;3.28;2.50;;;;;;;;;;5076002;28;20053;-60
2024/02/04 01:56:14;;;;;;;2.60;2.25;;;;;;;;;;5075984;28;20063;-60
2024/02/04 01:58:41;;;;;;;3.30;2.30;;;;;;;;;;5075839;28;20055;-60
2024/02/04 02:01:08;;;;;;;3.42;1.73;;;;;;;;;;5073611;28;20052;-60
2024/02/04 02:03:35;;;;;;;1.65;1.40;;;;;;;;;;5076275;28;20049;-60
2024/02/04 02:06:02;;;;;;;1.75;1.30;;;;;;;;;;5075441;28;20048;-60
2024/02/04 02:08:30;;;;;;;1.40;1.00;;;;;;;;;;5076074;28;20467;-60
2024/02/04 02:11:04;;;;;;;1.60;0.80;;;;;;;;;;5075901;28;20053;-60
2024/02/04 02:13:32;;;;;;;2.80;1.10;;;;;;;;;;5076171;28;20479;-60
2024/02/04 02:16:03;;;;;;;1.70;1.00;;;;;;;;;;5075497;28;20060;-60
2024/02/04 02:18:33;;;;;;;1.40;0.93;;;;;;;;;;5075345;28;20053;-60
2024/02/04 02:21:08;;;;;;;1.40;0.90;;;;;;;;;;5075766;28;20056;-60
2024/02/04 02:23:40;;;;;;;1.10;0.70;;;;;;;;;;5075928;28;20056;-60
2024/02/04 02:26:09;;;;;;;1.23;0.65;;;;;;;;;;5075803;28;20048;-60
2024/02/04 02:28:35;;;;;;;1.58;0.85;;;;;;;;;;5075912;28;20056;-60
2024/02/04 02:31:02;;;;;;;1.05;0.73;;;;;;;;;;5075460;28;20064;-60
2024/02/04 02:33:29;;;;;;;3.30;0.70;;;;;;;;;;5075641;28;20053;-60
2024/02/04 02:35:58;;;;;;;1.60;0.73;;;;;;;;;;5075222;28;20057;-60
2024/02/04 02:38:27;;;;;;;1.70;1.10;;;;;;;;;;5075584;28;20056;-60
2024/02/04 02:40:57;;;;;;;1.67;1.20;;;;;;;;;;5075365;28;20049;-60
2024/02/04 02:43:23;;;;;;;;;;;;;;;;;;5075370;28;20052;-60
2024/02/04 02:45:52;;;;;;;2.00;1.40;;;;;;;;;;5074988;28;19920;-59
2024/02/04 02:48:19;;;;;;;2.00;1.48;;;;;;;;;;5074870;28;20056;-59
2024/02/04 02:50:45;;;;;;;2.80;1.90;;;;;;;;;;5075146;28;20052;-60
2024/02/04 02:53:12;;;;;;;2.60;2.38;;;;;;;;;;5075175;28;20059;-60
2024/02/04 02:55:40;;;;;;;3.65;2.60;;;;;;;;;;5075067;28;20389;-61
2024/02/04 02:58:07;;;;;;;3.72;3.25;;;;;;;;;;5075169;28;20048;-60
2024/02/04 03:00:34;;;;;;;4.82;3.65;;;;;;;;;;5074599;28;20053;-60
2024/02/04 03:03:02;;;;;;;5.88;4.38;;;;;;;;;;5074891;28;20048;-60
2024/02/04 03:05:29;;;;;;;5.20;4.30;;;;;;;;;;5074798;28;20052;-60
2024/02/04 03:07:55;;;;;;;5.18;4.00;;;;;;;;;;5074789;28;20056;-60
2024/02/04 03:10:22;;;;;;;4.80;4.20;;;;;;;;;;5074223;28;20471;-60
2024/02/04 03:12:49;;;;;;;5.53;5.03;;;;;;;;;;5074572;28;20052;-60
2024/02/04 03:15:16;;;;;;;5.22;4.72;;;;;;;;;;5074452;28;20064;-60
2024/02/04 03:17:43;;;;;;;5.65;5.10;;;;;;;;;;5074609;28;20395;-60
2024/02/04 03:20:12;;;;;;;5.68;5.07;;;;;;;;;;5074366;28;20049;-60
2024/02/04 03:22:39;;;;;;;5.75;5.15;;;;;;;;;;5074547;28;20402;-60
2024/02/04 03:25:06;;;;;;;7.00;6.30;;;;;;;;;;5074181;28;20056;-60
2024/02/04 03:27:33;;;;;;;7.30;6.60;;;;;;;;;;5074357;28;20049;-60
2024/02/04 03:30:01;;;;;;;7.65;6.95;;;;;;;;;;5074373;28;20380;-59
2024/02/04 03:32:29;;;;;;;8.60;7.78;;;;;;;;;;5074516;28;20056;-60
2024/02/04 03:34:55;;;;;;;9.65;7.80;;;;;;;;;;5074316;28;20063;-60
2024/02/04 03:37:24;;;;;;;10.15;9.07;;;;;;;;;;5074310;28;20056;-60
2024/02/04 03:39:50;;;;;;;10.82;9.60;;;;;;;;;;5074198;28;20052;-60
2024/02/04 03:42:18;;;;;;;10.07;9.07;;;;;;;;;;5074345;28;20049;-60
2024/02/04 03:44:45;;;;;;;11.50;10.30;;;;;;;;;;5073839;28;20048;-60
2024/02/04 03:47:11;;;;;;;12.50;11.07;;;;;;;;;;5074223;28;20052;-61
2024/02/04 03:49:38;;;;;;;12.65;11.32;;;;;;;;;;5074139;28;20055;-60
2024/02/04 03:52:05;;;;;;;12.63;11.27;;;;;;;;;;5073634;28;20044;-60
2024/02/04 03:54:33;;;;;;;14.32;12.60;;;;;;;;;;5074050;28;20052;-60
2024/02/04 03:57:00;;;;;;;14.07;12.68;;;;;;;;;;5073768;28;20475;-60
2024/02/04 03:59:27;;;;;;;14.60;12.73;;;;;;;;;;5073341;28;20056;-60
2024/02/04 04:01:54;;;;;;;14.00;12.50;;;;;;;;;;5073932;28;20534;-60
2024/02/04 04:04:21;;;;;;;15.38;13.77;;;;;;;;;;5073581;28;20059;-60
2024/02/04 04:06:48;;;;;;;16.23;14.45;;;;;;;;;;5073675;28;20067;-61
2024/02/04 04:09:15;;;;;;;16.75;14.85;;;;;;;;;;5073254;28;20053;-60
2024/02/04 04:11:43;;;;;;;17.55;15.75;;;;;;;;;;5073480;28;20056;-60
2024/02/04 04:14:10;;;;;;;18.70;16.17;;;;;;;;;;5073843;28;20419;-60
2024/02/04 04:16:37;;;;;;;18.08;15.88;;;;;;;;;;5073318;28;20118;-59
2024/02/04 04:19:04;;;;;;;17.30;13.95;;;;;;;;;;5073396;28;20119;-60
2024/02/04 04:21:30;;;;;;;17.00;15.25;;;;;;;;;;5073470;28;20048;-59
2024/02/04 04:23:57;;;;;;;19.10;16.35;;;;;;;;;;5073343;28;20048;-60
2024/02/04 04:26:24;;;;;;;17.95;15.80;;;;;;;;;;5073450;28;20060;-60
2024/02/04 04:28:52;;;;;;;18.88;16.40;;;;;;;;;;5073526;28;20048;-60
2024/02/04 04:31:19;;;;;;;16.83;15.02;;;;;;;;;;5073385;28;20055;-60
2024/02/04 04:33:46;;;;;;;18.10;15.52;;;;;;;;;;5073404;28;20407;-60
2024/02/04 04:36:12;;;;;;;17.88;15.20;;;;;;;;;;5073409;28;20057;-61
2024/02/04 04:38:39;;;;;;;17.98;16.08;;;;;;;;;;5073463;28;20071;-60
2024/02/04 04:41:06;;;;;;;18.75;15.95;;;;;;;;;;5072678;28;20055;-60
2024/02/04 04:43:33;;;;;;;17.50;15.70;;;;;;;;;;5073358;28;20048;-60
2024/02/04 04:46:02;;;;;;;16.92;14.55;;;;;;;;;;5073153;28;20059;-60
2024/02/04 04:48:28;;;;;;;15.48;13.75;;;;;;;;;;5073350;28;20064;-61
2024/02/04 04:50:55;;;;;;;14.60;13.07;;;;;;;;;;5073043;28;20049;-60
2024/02/04 04:53:22;;;;;;;14.68;13.10;;;;;;;;;;5073216;28;20056;-60
2024/02/04 04:55:49;;;;;;;16.20;13.73;;;;;;;;;;5072669;28;20080;-60
2024/02/04 04:58:15;;;;;;;13.55;11.70;;;;;;;;;;5073005;28;20048;-61
2024/02/04 05:00:42;;;;;;;15.32;12.15;;;;;;;;;;5072546;28;20051;-61
2024/02/04 05:03:11;;;;;;;12.35;10.98;;;;;;;;;;5073002;28;20059;-61
2024/02/04 05:05:37;;;;;;;10.55;8.75;;;;;;;;;;5072957;28;20091;-61
2024/02/04 05:08:05;;;;;;;8.75;7.78;;;;;;;;;;5072694;28;20076;-60
2024/02/04 05:10:31;;;;;;;11.38;7.72;;;;;;;;;;5071793;28;20055;-60
2024/02/04 05:12:58;;;;;;;8.77;7.50;;;;;;;;;;5072763;28;20048;-61
2024/02/04 05:15:25;;;;;;;9.20;7.75;;;;;;;;;;5072355;28;20052;-61
2024/02/04 05:17:52;;;;;;;9.52;8.40;;;;;;;;;;5072481;28;20049;-61
2024/02/04 05:20:20;;;;;;;11.75;10.23;;;;;;;;;;5072197;28;20055;-61
2024/02/04 05:22:47;;;;;;;12.90;11.00;;;;;;;;;;5072759;28;20059;-61
2024/02/04 05:25:14;;;;;;;12.30;11.07;;;;;;;;;;5072713;28;20055;-61
2024/02/04 05:27:41;;;;;;;12.95;10.75;;;;;;;;;;5072555;28;20049;-61
2024/02/04 05:30:08;;;;;;;13.63;11.77;;;;;;;;;;5072285;28;20052;-60
2024/02/04 05:32:35;;;;;;;13.85;12.45;;;;;;;;;;5072374;28;20399;-61
2024/02/04 05:35:02;;;;;;;16.38;14.20;;;;;;;;;;5072625;28;20048;-61
2024/02/04 05:37:30;;;;;;;14.13;12.63;;;;;;;;;;5072396;28;20048;-61
2024/02/04 05:39:57;;;;;;;16.40;13.95;;;;;;;;;;5072507;28;20060;-61
2024/02/04 05:42:23;;;;;;;15.07;12.63;;;;;;;;;;5072159;28;20063;-60
2024/02/04 05:44:50;;;;;;;14.02;12.57;;;;;;;;;;5072524;28;20052;-61
2024/02/04 05:47:17;;;;;;;14.13;12.63;;;;;;;;;;5072355;28;20056;-61
2024/02/04 05:49:44;;;;;;;15.77;12.95;;;;;;;;;;5072192;28;20045;-61
2024/02/04 05:52:11;;;;;;;14.75;13.15;;;;;;;;;;5072454;28;20049;-61
2024/02/04 05:54:40;;;;;;;13.75;11.98;;;;;;;;;;5072420;28;20056;-61
2024/02/04 05:57:06;;;;;;;13.20;11.85;;;;;;;;;;5072208;28;20053;-61
2024/02/04 05:59:33;;;;;;;16.30;13.00;;;;;;;;;;5072055;28;20053;-60
2024/02/04 06:02:00;;;;;;;15.05;13.18;;;;;;;;;;5072219;28;20051;-60
2024/02/04 06:04:27;;;;;;;15.15;13.52;;;;;;;;;;5072345;28;20063;-60
2024/02/04 06:06:54;;;;;;;16.45;14.07;;;;;;;;;;5072037;28;20059;-60
2024/02/04 06:09:20;;;;;;;15.02;13.52;;;;;;;;;;5071550;28;20423;-60
2024/02/04 06:11:49;;;;;;;14.27;12.77;;;;;;;;;;5071724;28;20411;-61
2024/02/04 06:14:15;;;;;;;15.30;13.70;;;;;;;;;;5072095;28;20049;-60
2024/02/04 06:16:42;;;;;;;15.15;13.55;;;;;;;;;;5071712;28;20064;-61
2024/02/04 06:19:12;;;;;;;17.52;14.27;;;;;;;;;;5071915;28;20061;-61
2024/02/04 06:21:39;;;;;;;16.27;14.48;;;;;;;;;;5073846;28;20044;-61
2024/02/04 06:24:06;;;;;;;16.73;14.93;;;;;;;;;;5074371;28;20063;-61
2024/02/04 06:26:33;;;;;;;16.75;14.35;;;;;;;;;;5074996;28;20049;-61
2024/02/04 06:29:01;;;;;;;16.90;15.02;;;;;;;;;;5075071;28;20052;-61
2024/02/04 06:31:28;;;;;;;17.95;16.08;;;;;;;;;;5075341;28;20055;-61
2024/02/04 06:33:55;;;;;;;19.83;16.95;;;;;;;;;;5075466;28;20060;-60
2024/02/04 06:36:22;;;;;;;18.73;15.95;;;;;;;;;;5075233;28;20052;-59
2024/02/04 06:38:48;;;;;;;19.75;17.38;;;;;;;;;;5075241;28;20379;-61
2024/02/04 06:41:15;;;;;;;21.00;16.70;;;;;;;;;;5074922;28;20048;-60
2024/02/04 06:43:42;;;;;;;17.95;15.40;;;;;;;;;;5074533;28;20062;-61
2024/02/04 06:46:10;;;;;;;17.67;14.52;;;;;;;;;;5075155;28;20059;-61
2024/02/04 06:48:37;;;;;;;19.42;14.50;;;;;;;;;;5075490;28;20061;-61
2024/02/04 06:51:03;;;;;;;16.83;13.95;;;;;;;;;;5075429;28;20056;-61
2024/02/04 06:53:30;;;;;;;14.68;12.60;;;;;;;;;;5075044;28;20052;-61
2024/02/04 06:55:57;;;;;;;17.45;13.90;;;;;;;;;;5075279;28;20052;-61
2024/02/04 06:58:24;;;;;;;17.13;14.07;;;;;;;;;;5075449;28;20056;-61
2024/02/04 07:00:51;;;;;;;15.77;13.20;;;;;;;;;;5075021;28;20394;-61
2024/02/04 07:03:19;;;;;;;15.45;13.70;;;;;;;;;;5075228;28;20055;-61
2024/02/04 07:05:46;;;;;;;19.00;14.75;;;;;;;;;;5074804;28;20055;-61
2024/02/04 07:08:13;;;;;;;16.55;14.13;;;;;;;;;;5075109;28;20055;-60
2024/02/04 07:10:40;;;;;;;17.88;14.93;;;;;;;;;;5074906;28;20434;-60
2024/02/04 07:13:08;;;;;;;20.35;15.15;;;;;;;;;;5075042;28;20060;-60
2024/02/04 07:15:34;;;;;;;16.63;13.73;;;;;;;;;;5074407;28;20056;-60
2024/02/04 07:18:01;;;;;;;16.08;14.05;;;;;;;;;;5074820;28;20071;-61
2024/02/04 07:20:30;;;;;;;19.08;13.05;;;;;;;;;;5074419;28;20053;-61
2024/02/04 07:22:56;;;;;;;17.30;12.85;;;;;;;;;;5074889;28;20056;-61
2024/02/04 07:25:23;;;;;;;15.75;12.02;;;;;;;;;;5074183;28;20056;-61
2024/02/04 07:27:50;;;;;;;13.85;11.50;;;;;;;;;;5074804;28;20491;-61
2024/02/04 07:30:17;;;;;;;12.38;10.00;;;;;;;;;;5074120;28;20063;-60
2024/02/04 07:32:44;;;;;;;12.90;9.43;;;;;;;;;;5073266;28;20055;-61
2024/02/04 07:35:11;;;;;;;12.10;9.40;;;;;;;;;;5074225;28;20063;-60
2024/02/04 07:37:39;;;;;;;10.50;9.10;;;;;;;;;;5074472;28;20407;-60
2024/02/04 07:40:07;;;;;;;13.90;8.80;;;;;;;;;;5073945;28;20053;-60
2024/02/04 07:42:34;;;;;;;11.30;9.38;;;;;;;;;;5074253;28;20376;-61
2024/02/04 07:45:01;;;;;;;10.52;8.70;;;;;;;;;;5074174;28;20052;-61
2024/02/04 07:47:28;;;;;;;9.98;8.13;;;;;;;;;;5074109;28;20409;-61
2024/02/04 07:49:55;;;;;;;11.50;8.55;;;;;;;;;;5074003;28;20399;-60
2024/02/04 07:52:22;;;;;;;10.60;9.20;;;;;;;;;;5073841;28;20044;-60
2024/02/04 07:54:50;;;;;;;10.05;8.05;;;;;;;;;;5073681;28;20059;-60
2024/02/04 07:57:17;;;;;;;10.27;8.00;;;;;;;;;;5074001;28;20060;-60
2024/02/04 07:59:43;;;;;;;9.82;7.97;;;;;;;;;;5073913;28;20059;-60
2024/02/04 08:02:10;;;;;;;8.50;7.00;;;;;;;;;;5073536;28;20055;-61
2024/02/04 08:04:37;;;;;;;9.93;6.43;;;;;;;;;;5073462;28;20056;-60
2024/02/04 08:07:04;;;;;;;6.82;5.75;;;;;;;;;;5073632;28;20056;-61
2024/02/04 08:09:31;;;;;;;7.43;5.68;;;;;;;;;;5073759;28;20419;-61
2024/02/04 08:11:59;;;;;;;7.43;5.15;;;;;;;;;;5073512;28;20059;-60
2024/02/04 08:14:26;;;;;;;7.57;4.80;;;;;;;;;;5072704;28;20052;-60
2024/02/04 08:16:53;;;;;;;6.25;4.88;;;;;;;;;;5072590;28;20410;-60
2024/02/04 08:19:20;;;;;;;5.63;4.95;;;;;;;;;;5073477;28;20052;-61
2024/02/04 08:21:47;;;;;;;7.45;4.53;;;;;;;;;;5073512;28;20048;-60
2024/02/04 08:24:14;;;;;;;6.55;4.38;;;;;;;;;;5073404;28;20052;-61
2024/02/04 08:26:40;;;;;;;8.27;4.65;;;;;;;;;;5073167;28;20052;-60
2024/02/04 08:29:09;;;;;;;6.32;3.65;;;;;;;;;;5073316;28;20053;-60
2024/02/04 08:31:35;;;;;;;6.10;4.00;;;;;;;;;;5073150;28;20487;-60
2024/02/04 08:34:02;;;;;;;4.30;3.45;;;;;;;;;;5073227;28;20067;-61
2024/02/04 08:36:30;;;;;;;4.93;3.22;;;;;;;;;;5072903;28;20059;-60
2024/02/04 08:38:57;;;;;;;3.80;3.03;;;;;;;;;;5072863;28;20063;-61
2024/02/04 08:41:24;;;;;;;4.10;3.40;;;;;;;;;;5072663;28;20415;-60
2024/02/04 08:43:51;;;;;;;4.95;3.22;;;;;;;;;;5072202;28;20056;-61
2024/02/04 08:46:19;;;;;;;3.88;2.65;;;;;;;;;;5072547;28;20048;-61
2024/02/04 08:48:46;;;;;;;4.00;3.20;;;;;;;;;;5072398;28;20052;-60
2024/02/04 08:51:13;;;;;;;3.17;2.83;;;;;;;;;;5072570;28;20052;-60
2024/02/04 08:53:40;;;;;;;5.18;3.03;;;;;;;;;;5072150;28;20075;-60
2024/02/04 08:56:07;;;;;;;5.45;3.22;;;;;;;;;;5072363;28;20499;-60
2024/02/04 08:58:34;;;;;;;3.60;3.30;;;;;;;;;;5072746;28;20056;-60
2024/02/04 09:01:01;;;;;;;5.35;2.72;;;;;;;;;;5072420;28;20052;-60
2024/02/04 09:03:29;;;;;;;3.28;2.70;;;;;;;;;;5072046;28;20045;-61
2024/02/04 09:05:56;;;;;;;4.45;2.88;;;;;;;;;;5072395;28;20411;-60
2024/02/04 09:08:23;;;;;;;4.90;2.55;;;;;;;;;;5072315;28;20052;-61
2024/02/04 09:10:49;;;;;;;3.42;2.20;;;;;;;;;;5072037;28;20487;-61
2024/02/04 09:13:16;;;;;;;4.07;2.10;;;;;;;;;;5072658;28;20056;-61
2024/02/04 09:15:43;;;;;;;3.22;1.90;;;;;;;;;;5072192;28;20056;-61
2024/02/04 09:18:10;;;;;;;3.25;1.67;;;;;;;;;;5072542;28;20056;-60
2024/02/04 09:20:38;;;;;;;2.38;1.52;;;;;;;;;;5072257;28;20079;-60
2024/02/04 09:23:06;;;;;;;3.05;1.70;;;;;;;;;;5072664;28;20044;-60
2024/02/04 09:25:32;;;;;;;2.38;1.35;;;;;;;;;;5072727;28;20059;-61
2024/02/04 09:27:59;;;;;;;2.45;1.52;;;;;;;;;;5072584;28;20048;-61
2024/02/04 09:30:26;;;;;;;2.30;1.60;;;;;;;;;;5072279;28;20143;-61
2024/02/04 09:32:53;;;;;;;2.33;1.63;;;;;;;;;;5072319;28;20071;-61
2024/02/04 09:35:20;;;;;;;2.20;1.70;;;;;;;;;;5072445;28;20059;-60
2024/02/04 09:37:48;;;;;;;2.67;1.88;;;;;;;;;;5072127;28;20487;-61
2024/02/04 09:40:15;;;;;;;3.38;2.40;;;;;;;;;;5072374;28;20060;-61
2024/02/04 09:42:42;;;;;;;3.25;2.28;;;;;;;;;;5072369;28;20052;-61
2024/02/04 09:45:10;;;;;;;3.63;2.35;;;;;;;;;;5071937;28;20057;-60
2024/02/04 09:47:37;;;;;;;2.83;2.17;;;;;;;;;;5072433;28;20056;-61
2024/02/04 09:50:04;;;;;;;3.65;2.53;;;;;;;;;;5072238;28;20052;-61
2024/02/04 09:52:32;;;;;;;3.63;2.70;;;;;;;;;;5072114;28;20074;-61
2024/02/04 09:55:01;;;;;;;4.20;2.80;;;;;;;;;;5072214;28;20053;-61
2024/02/04 09:57:28;;;;;;;;;;;;;;;;;;5076243;28;20052;-61
2024/02/04 09:59:55;;;;;;;4.30;3.10;;;;;;;;;;5076315;28;19920;-61
2024/02/04 10:02:22;;;;;;;5.05;3.58;;;;;;;;;;5075898;28;20051;-61
2024/02/04 10:04:49;;;;;;;8.25;6.05;;;;;;;;;;5076109;28;20060;-61
2024/02/04 10:07:16;;;;;;;8.15;6.30;;;;;;;;;;5075760;28;20056;-61
2024/02/04 10:09:43;;;;;;;8.85;7.03;;;;;;;;;;5075940;28;20065;-61
2024/02/04 10:12:12;;;;;;;7.85;6.75;;;;;;;;;;5075885;28;20403;-62
2024/02/04 10:14:38;;;;;;;7.60;6.78;;;;;;;;;;5075502;28;20060;-61
2024/02/04 10:17:05;;;;;;;8.23;6.45;;;;;;;;;;5075346;28;20067;-61
2024/02/04 10:19:32;;;;;;;8.18;7.00;;;;;;;;;;5075716;28;20063;-61
2024/02/04 10:22:00;;;;;;;7.60;6.90;;;;;;;;;;5075828;28;20056;-61
2024/02/04 10:24:27;;;;;;;7.32;6.25;;;;;;;;;;5075702;28;20052;-62
2024/02/04 10:26:54;;;;;;;6.93;5.50;;;;;;;;;;5075338;28;20059;-62
2024/02/04 10:29:22;;;;;;;6.70;5.05;;;;;;;;;;5075628;28;20060;-62
2024/02/04 10:31:49;;;;;;;5.72;4.40;;;;;;;;;;5075565;28;20084;-61
2024/02/04 10:34:16;;;;;;;5.97;4.10;;;;;;;;;;5075145;28;20048;-61
2024/02/04 10:36:43;;;;;;;4.72;4.22;;;;;;;;;;5075306;28;20052;-61
2024/02/04 10:39:09;;;;;;;6.03;4.60;;;;;;;;;;5075305;28;20060;-62
2024/02/04 10:41:40;;;;;;;5.85;4.57;;;;;;;;;;5074929;28;20060;-61
2024/02/04 10:44:07;;;;;;;4.95;4.00;;;;;;;;;;5074630;28;20052;-61
2024/02/04 10:46:36;;;;;;;6.28;4.50;;;;;;;;;;5074663;28;20059;-62
2024/02/04 10:49:06;;;;;;;5.45;4.50;;;;;;;;;;5075192;28;20055;-62
2024/02/04 10:51:34;;;;;;;5.22;4.72;;;;;;;;;;5074812;28;20052;-62
2024/02/04 10:54:03;;;;;;;4.97;3.97;;;;;;;;;;5075225;28;20052;-62
2024/02/04 10:56:31;;;;;;;3.90;3.00;;;;;;;;;;5074686;28;20056;-62
2024/02/04 10:59:00;;;;;;;4.35;3.78;;;;;;;;;;5074892;28;20060;-62
2024/02/04 11:01:27;;;;;;;5.03;3.67;;;;;;;;;;5074718;28;20056;-62
2024/02/04 11:03:55;;;;;;;5.18;3.95;;;;;;;;;;5074796;28;20048;-62
2024/02/04 11:06:23;;;;;;;4.68;4.28;;;;;;;;;;5074554;28;20048;-62
2024/02/04 11:08:50;;;;;;;4.78;4.28;;;;;;;;;;5073823;28;20063;-62
2024/02/04 11:11:17;;;;;;;6.20;4.43;;;;;;;;;;5074208;28;20052;-62
2024/02/04 11:13:45;;;;;;;4.93;4.35;;;;;;;;;;5074759;28;20052;-62
2024/02/04 11:16:16;;;;;;;6.30;5.18;;;;;;;;;;5074218;28;20060;-62
2024/02/04 11:18:58;;;;;;;4.82;4.32;;;;;;;;;;5074535;28;20411;-62
2024/02/04 11:21:35;;;;;;;5.25;4.40;;;;;;;;;;5072442;28;20052;-62
2024/02/04 11:24:09;;;;;;;4.10;3.70;;;;;;;;;;5074252;28;20166;-62
2024/02/04 11:26:38;;;;;;;6.68;3.10;;;;;;;;;;5074212;28;20052;-62
2024/02/04 11:29:04;;;;;;;3.08;2.55;;;;;;;;;;5074615;28;20056;-62
2024/02/04 11:31:32;;;;;;;3.78;2.85;;;;;;;;;;5073987;28;20059;-62
2024/02/04 11:33:59;;;;;;;4.40;3.00;;;;;;;;;;5074396;28;20071;-62
2024/02/04 11:36:26;;;;;;;3.10;2.80;;;;;;;;;;5073988;28;20053;-62
2024/02/04 11:38:54;;;;;;;3.75;3.28;;;;;;;;;;5074074;28;20059;-62
2024/02/04 11:41:24;;;;;;;3.03;2.50;;;;;;;;;;5074200;28;20053;-62
2024/02/04 11:43:53;;;;;;;3.80;3.03;;;;;;;;;;5073902;28;20419;-62
2024/02/04 11:46:20;;;;;;;4.38;3.13;;;;;;;;;;5073643;28;20049;-62
2024/02/04 11:48:53;;;;;;;3.42;2.70;;;;;;;;;;5073666;28;20048;-62
2024/02/04 11:51:22;;;;;;;5.32;3.30;;;;;;;;;;5073676;28;20052;-62
2024/02/04 11:53:49;;;;;;;3.78;3.00;;;;;;;;;;5073683;28;20052;-62
2024/02/04 11:56:18;;;;;;;3.38;3.08;;;;;;;;;;5073601;28;20064;-62
2024/02/04 11:58:45;;;;;;;3.55;3.20;;;;;;;;;;5073587;28;20049;-62
2024/02/04 12:01:12;;;;;;;3.45;2.95;;;;;;;;;;5073603;28;20052;-62
2024/02/04 12:03:38;;;;;;;3.15;2.75;;;;;;;;;;5073810;28;20067;-61
2024/02/04 12:06:06;;;;;;;3.58;2.60;;;;;;;;;;5073459;28;20048;-62
2024/02/04 12:08:33;;;;;;;4.32;3.00;;;;;;;;;;5073718;28;20052;-62
2024/02/04 12:11:00;;;;;;;4.20;3.05;;;;;;;;;;5073535;28;20055;-62
2024/02/04 12:13:29;;;;;;;3.78;3.38;;;;;;;;;;5073682;28;20414;-62
2024/02/04 12:15:56;;;;;;;5.28;3.30;;;;;;;;;;5073017;28;20498;-62
2024/02/04 12:18:22;;;;;;;4.18;3.10;;;;;;;;;;5073427;28;20055;-61
2024/02/04 12:20:50;;;;;;;4.22;3.13;;;;;;;;;;5073417;28;20052;-62
2024/02/04 12:23:18;;;;;;;3.80;2.83;;;;;;;;;;5073436;28;20052;-61
2024/02/04 12:25:45;;;;;;;3.22;2.83;;;;;;;;;;5073059;28;20052;-62
2024/02/04 12:28:12;;;;;;;3.92;3.00;;;;;;;;;;5073351;28;20061;-61
2024/02/04 12:30:40;;;;;;;3.80;2.92;;;;;;;;;;5072982;28;20052;-62
2024/02/04 12:33:08;;;;;;;5.07;2.85;;;;;;;;;;5073438;28;20529;-62
2024/02/04 12:35:35;;;;;;;3.88;3.13;;;;;;;;;;5072931;28;20063;-61
2024/02/04 12:38:03;;;;;;;3.90;2.90;;;;;;;;;;5073187;28;20498;-61
2024/02/04 12:40:30;;;;;;;2.67;1.98;;;;;;;;;;5073101;28;20510;-61
2024/02/04 12:42:58;;;;;;;3.17;2.47;;;;;;;;;;5073080;28;20059;-61
2024/02/04 12:45:24;;;;;;;3.47;2.47;;;;;;;;;;5072722;28;20364;-61
2024/02/04 12:47:53;;;;;;;3.55;2.20;;;;;;;;;;5073464;28;20410;-61
2024/02/04 12:50:20;;;;;;;3.90;2.50;;;;;;;;;;5073233;28;20048;-61
2024/02/04 12:52:47;;;;;;;3.60;2.47;;;;;;;;;;5072974;28;20075;-61
2024/02/04 12:55:20;;;;;;;3.90;2.50;;;;;;;;;;5072559;28;20049;-61
2024/02/04 12:57:47;;;;;;;3.80;2.85;;;;;;;;;;5072877;28;20052;-61
2024/02/04 13:00:18;;;;;;;5.22;3.10;;;;;;;;;;5072483;28;20499;-61
2024/02/04 13:02:45;;;;;;;4.18;3.60;;;;;;;;;;5072619;28;20053;-61
2024/02/04 13:05:22;;;;;;;5.55;3.00;;;;;;;;;;5072415;28;20479;-61
2024/02/04 13:07:51;;;;;;;5.10;3.30;;;;;;;;;;5072515;28;20048;-61
2024/02/04 13:10:18;;;;;;;;;;;;;;;;;;5072950;28;20056;-61
2024/02/04 13:12:45;;;;;;;4.70;3.50;;;;;;;;;;5072802;28;19924;-61
2024/02/04 13:15:11;;;;;;;4.68;3.20;;;;;;;;;;5072384;28;20045;-61
2024/02/04 13:17:38;;;;;;;5.97;3.30;;;;;;;;;;5072711;28;20052;-61
2024/02/04 13:20:06;;;;;;;4.10;2.92;;;;;;;;;;5072520;28;20052;-61
2024/02/04 13:22:34;;;;;;;5.18;3.10;;;;;;;;;;5072689;28;20052;-61
2024/02/04 13:25:01;;;;;;;3.78;3.30;;;;;;;;;;5072490;28;20479;-61
2024/02/04 13:27:27;;;;;;;4.95;2.88;;;;;;;;;;5072387;28;20437;-61
2024/02/04 13:29:54;;;;;;;4.47;3.10;;;;;;;;;;5072317;28;20060;-61
2024/02/04 13:32:21;;;;;;;5.28;2.90;;;;;;;;;;5072024;28;20053;-61
2024/02/04 13:34:49;;;;;;;3.67;2.70;;;;;;;;;;5072313;28;20048;-61
2024/02/04 13:37:16;;;;;;;3.53;2.45;;;;;;;;;;5072365;28;20513;-61
2024/02/04 13:39:44;;;;;;;3.67;2.92;;;;;;;;;;5072563;28;20419;-61
2024/02/04 13:42:11;;;;;;;5.03;3.05;;;;;;;;;;5072372;28;20060;-61
2024/02/04 13:44:38;;;;;;;3.75;2.72;;;;;;;;;;5072323;28;20044;-61
2024/02/04 13:47:05;;;;;;;3.25;2.65;;;;;;;;;;5072208;28;20105;-61
2024/02/04 13:49:32;;;;;;;4.50;2.60;;;;;;;;;;5072351;28;20052;-61
2024/02/04 13:51:59;;;;;;;2.97;2.35;;;;;;;;;;5072225;28;20057;-61
2024/02/04 13:54:25;;;;;;;4.10;3.03;;;;;;;;;;5071881;28;20044;-61
2024/02/04 13:56:54;;;;;;;4.38;3.22;;;;;;;;;;5071806;28;20060;-62
2024/02/04 13:59:20;;;;;;;3.60;2.90;;;;;;;;;;5072199;28;20057;-61
2024/02/04 14:01:47;;;;;;;3.00;2.60;;;;;;;;;;5072088;28;20055;-62
2024/02/04 14:04:14;;;;;;;3.72;2.08;;;;;;;;;;5071999;28;20412;-61
2024/02/04 14:06:41;;;;;;;2.90;2.00;;;;;;;;;;5078994;28;20075;-61
2024/02/04 14:09:08;;;;;;;3.05;2.08;;;;;;;;;;5092175;28;20059;-61
2024/02/04 14:11:35;;;;;;;2.40;2.03;;;;;;;;;;5092250;28;20060;-62
2024/02/04 14:14:03;;;;;;;3.60;2.10;;;;;;;;;;5092211;28;20052;-62
2024/02/04 14:16:30;;;;;;;2.95;2.33;;;;;;;;;;5092012;28;20056;-63
2024/02/04 14:18:57;;;;;;;4.00;2.30;;;;;;;;;;5092103;28;20059;-61
2024/02/04 14:21:24;;;;;;;3.08;2.53;;;;;;;;;;5092150;28;20048;-63
2024/02/04 14:23:51;;;;;;;3.97;2.90;;;;;;;;;;5092287;28;20059;-61
2024/02/04 14:26:18;;;;;;;5.20;3.78;;;;;;;;;;5091786;28;20047;-61
2024/02/04 14:28:45;;;;;;;6.00;4.07;;;;;;;;;;5091643;28;20055;-60
2024/02/04 14:31:13;;;;;;;6.28;4.80;;;;;;;;;;5092189;28;20406;-61
2024/02/04 14:33:40;;;;;;;4.53;4.13;;;;;;;;;;5092431;28;20425;-61
2024/02/04 14:36:07;;;;;;;5.35;4.60;;;;;;;;;;5091846;28;20048;-61